Time;durP1;ratioP1;P1;durP2;ratioP2;P2;SDS_P1;SDS_P2;PMS_P1;PMS_P2;Temp;Humidity;BMP_temperature;BMP_pressure;BME280_temperature;BME280_humidity;BME280_pressure;Samples;Min_cycle;Max_cycle;Signal;HPM_P1;HPM_P2
2022/04/13 00:00:33;;;;;;;10.67;7.63;;;11.90;75.50;;;;;;5074128;28;20251;-82
2022/04/13 00:03:00;;;;;;;10.63;7.43;;;11.90;75.50;;;;;;5061076;28;20243;-81
2022/04/13 00:05:29;;;;;;;9.20;7.10;;;11.80;75.50;;;;;;5059697;28;20526;-82
2022/04/13 00:07:56;;;;;;;7.83;6.93;;;11.80;75.50;;;;;;5076957;28;20214;-82
2022/04/13 00:10:23;;;;;;;10.50;7.47;;;11.70;75.90;;;;;;5060845;28;21717;-82
2022/04/13 00:12:50;;;;;;;9.13;7.10;;;11.70;76.10;;;;;;5076454;28;20288;-82
2022/04/13 00:15:18;;;;;;;9.30;6.93;;;11.60;76.40;;;;;;5062526;28;20228;-81
2022/04/13 00:17:45;;;;;;;10.67;6.93;;;11.60;76.70;;;;;;5073774;28;20273;-82
2022/04/13 00:20:13;;;;;;;9.37;6.83;;;11.50;76.80;;;;;;5081432;28;20213;-83
2022/04/13 00:22:40;;;;;;;11.20;7.50;;;11.50;77.20;;;;;;5100219;28;20206;-82
2022/04/13 00:25:08;;;;;;;15.63;8.00;;;11.50;77.20;;;;;;5100595;28;20204;-82
2022/04/13 00:27:35;;;;;;;10.17;7.37;;;11.50;77.40;;;;;;5080480;28;20227;-83
2022/04/13 00:30:04;;;;;;;11.70;7.63;;;11.40;77.50;;;;;;5092762;28;20211;-83
2022/04/13 00:32:33;;;;;;;10.53;7.57;;;11.40;77.80;;;;;;5097512;28;20258;-82
2022/04/13 00:35:04;;;;;;;9.13;6.70;;;11.40;78.00;;;;;;5081990;28;20197;-83
2022/04/13 00:37:32;;;;;;;10.40;7.40;;;11.30;78.00;;;;;;5098620;28;20205;-82
2022/04/13 00:40:00;;;;;;;6.97;6.27;;;11.30;78.10;;;;;;5082598;28;20213;-83
2022/04/13 00:42:29;;;;;;;9.23;7.30;;;11.30;78.10;;;;;;5099406;28;20210;-83
2022/04/13 00:44:56;;;;;;;10.70;7.17;;;11.30;77.90;;;;;;5098299;28;20213;-84
2022/04/13 00:47:24;;;;;;;9.37;7.00;;;11.20;77.50;;;;;;5099673;28;20209;-82
2022/04/13 00:49:54;;;;;;;9.80;7.30;;;11.20;77.30;;;;;;5085017;28;20206;-83
2022/04/13 00:52:26;;;;;;;9.20;7.07;;;11.10;77.50;;;;;;5064873;28;20223;-82
2022/04/13 00:54:55;;;;;;;9.90;6.80;;;11.00;77.70;;;;;;5078681;28;20198;-81
2022/04/13 00:57:24;;;;;;;11.27;7.10;;;11.00;78.20;;;;;;5100171;28;20223;-82
2022/04/13 00:59:54;;;;;;;11.33;6.30;;;11.00;78.50;;;;;;5080176;28;20297;-82
2022/04/13 01:02:23;;;;;;;8.07;7.20;;;11.00;78.70;;;;;;5091425;28;20227;-81
2022/04/13 01:04:53;;;;;;;10.77;6.93;;;10.90;78.60;;;;;;5080581;28;20225;-83
2022/04/13 01:07:22;;;;;;;14.47;8.87;;;10.90;78.70;;;;;;5078632;28;20817;-83
2022/04/13 01:09:51;;;;;;;9.50;7.43;;;10.90;78.70;;;;;;5066257;28;20527;-83
2022/04/13 01:12:18;;;;;;;9.43;6.90;;;10.90;78.90;;;;;;5098374;28;20205;-83
2022/04/13 01:14:45;;;;;;;16.00;9.07;;;10.90;78.80;;;;;;5102099;28;20231;-83
2022/04/13 01:17:12;;;;;;;10.63;8.60;;;10.80;78.70;;;;;;5081006;28;20226;-82
2022/04/13 01:19:39;;;;;;;8.20;7.00;;;10.80;78.80;;;;;;5082325;28;20215;-83
2022/04/13 01:22:17;;;;;;;10.90;7.67;;;10.80;79.20;;;;;;5080295;28;20269;-82
2022/04/13 01:24:45;;;;;;;13.10;8.67;;;10.80;79.50;;;;;;5081771;28;20234;-83
2022/04/13 01:27:16;;;;;;;11.70;8.43;;;10.80;79.60;;;;;;5078920;28;20198;-82
2022/04/13 01:29:44;;;;;;;12.07;9.10;;;10.70;79.60;;;;;;5078501;28;20232;-82
2022/04/13 01:32:12;;;;;;;13.30;9.37;;;10.70;79.60;;;;;;5064394;28;20202;-84
2022/04/13 01:34:51;;;;;;;12.93;8.97;;;10.70;79.60;;;;;;5089008;28;21023;-84
2022/04/13 01:37:19;;;;;;;11.57;8.37;;;10.70;79.70;;;;;;5081387;28;20277;-84
2022/04/13 01:39:46;;;;;;;11.37;8.43;;;10.70;79.70;;;;;;5099421;28;20194;-84
2022/04/13 01:42:13;;;;;;;12.80;9.43;;;10.70;80.00;;;;;;5082200;28;20201;-84
2022/04/13 01:44:44;;;;;;;11.63;8.90;;;10.60;80.20;;;;;;5096984;28;20225;-84
2022/04/13 01:47:12;;;;;;;9.87;7.83;;;10.60;80.40;;;;;;5098747;28;20226;-83
2022/04/13 01:49:39;;;;;;;11.57;8.17;;;10.60;80.60;;;;;;5080728;28;20240;-83
2022/04/13 01:52:08;;;;;;;11.53;8.47;;;10.60;80.90;;;;;;5063538;28;20201;-83
2022/04/13 01:54:35;;;;;;;9.60;7.93;;;10.60;80.90;;;;;;5095494;28;20214;-83
2022/04/13 01:57:03;;;;;;;11.30;9.13;;;10.60;80.90;;;;;;5099380;28;20304;-83
2022/04/13 01:59:30;;;;;;;11.07;8.33;;;10.60;80.90;;;;;;5088357;28;20203;-84
2022/04/13 02:01:57;;;;;;;10.23;8.60;;;10.60;81.00;;;;;;5082281;28;20259;-83
2022/04/13 02:04:26;;;;;;;12.63;8.77;;;10.60;81.00;;;;;;5098443;28;20212;-82
2022/04/13 02:06:54;;;;;;;11.97;8.47;;;10.60;81.20;;;;;;5080550;28;20231;-83
2022/04/13 02:09:21;;;;;;;12.47;8.47;;;10.60;81.40;;;;;;5080666;28;20574;-84
2022/04/13 02:11:49;;;;;;;12.37;8.27;;;10.50;81.40;;;;;;5065307;28;20544;-84
2022/04/13 02:14:16;;;;;;;10.73;8.40;;;10.50;81.40;;;;;;5063970;28;20225;-83
2022/04/13 02:16:43;;;;;;;10.80;8.73;;;10.50;81.30;;;;;;5079885;28;20600;-82
2022/04/13 02:19:12;;;;;;;12.83;9.57;;;10.50;80.80;;;;;;5077755;28;20210;-84
2022/04/13 02:21:39;;;;;;;12.70;9.83;;;10.40;80.60;;;;;;5091397;28;20215;-82
2022/04/13 02:24:07;;;;;;;11.90;9.20;;;10.40;80.90;;;;;;5084952;28;20198;-83
2022/04/13 02:26:34;;;;;;;13.00;7.80;;;10.40;81.30;;;;;;5099470;28;20202;-83
2022/04/13 02:29:02;;;;;;;11.00;9.17;;;10.30;81.20;;;;;;5097143;28;20240;-84
2022/04/13 02:31:29;;;;;;;11.67;9.73;;;10.30;81.00;;;;;;5077392;28;20206;-83
2022/04/13 02:33:57;;;;;;;13.23;9.70;;;10.20;81.30;;;;;;5062997;28;20219;-84
2022/04/13 02:36:24;;;;;;;13.00;9.23;;;10.20;81.90;;;;;;5079013;28;20282;-83
2022/04/13 02:38:53;;;;;;;13.40;9.97;;;10.10;82.30;;;;;;5097892;28;20222;-83
2022/04/13 02:41:20;;;;;;;12.43;8.60;;;10.10;82.60;;;;;;5101216;28;20289;-83
2022/04/13 02:43:48;;;;;;;10.03;8.93;;;10.10;82.80;;;;;;5097673;28;20708;-82
2022/04/13 02:46:15;;;;;;;13.07;9.50;;;10.10;82.90;;;;;;5086682;28;20586;-84
2022/04/13 02:48:43;;;;;;;10.33;8.80;;;10.00;82.90;;;;;;5078374;28;20259;-83
2022/04/13 02:51:10;;;;;;;11.00;8.80;;;10.00;82.70;;;;;;5064042;28;20230;-83
2022/04/13 02:53:37;;;;;;;9.83;8.00;;;10.00;82.70;;;;;;5081115;28;20254;-83
2022/04/13 02:56:05;;;;;;;16.57;8.63;;;10.00;82.70;;;;;;5102002;28;20667;-85
2022/04/13 02:58:46;;;;;;;12.33;8.23;;;10.00;82.50;;;;;;5068601;28;20198;-84
2022/04/13 03:01:19;;;;;;;11.30;8.33;;;10.00;82.30;;;;;;5068388;28;20698;-83
2022/04/13 03:03:46;;;;;;;9.83;8.17;;;9.90;82.30;;;;;;5088832;28;20330;-84
2022/04/13 03:06:14;;;;;;;11.87;9.70;;;9.90;82.60;;;;;;5101000;28;20205;-83
2022/04/13 03:08:41;;;;;;;12.77;8.83;;;9.90;82.80;;;;;;5082032;28;20286;-83
2022/04/13 03:11:08;;;;;;;11.53;8.70;;;9.80;82.40;;;;;;5100379;28;20229;-83
2022/04/13 03:13:36;;;;;;;12.87;9.77;;;9.80;82.50;;;;;;5100769;28;20214;-83
2022/04/13 03:16:04;;;;;;;14.00;10.90;;;9.70;82.90;;;;;;5098104;28;20206;-83
2022/04/13 03:18:31;;;;;;;13.00;10.37;;;9.70;83.50;;;;;;5080876;28;20205;-83
2022/04/13 03:20:59;;;;;;;12.30;9.23;;;9.70;83.70;;;;;;5065270;28;20200;-83
2022/04/13 03:23:26;;;;;;;13.07;9.73;;;9.70;83.80;;;;;;5084875;28;20206;-84
2022/04/13 03:25:54;;;;;;;15.13;10.80;;;9.60;84.00;;;;;;5081883;28;21735;-84
2022/04/13 03:28:23;;;;;;;11.73;9.60;;;9.60;84.40;;;;;;5100994;28;20238;-84
2022/04/13 03:30:51;;;;;;;14.70;10.50;;;9.60;84.80;;;;;;5067628;28;20202;-84
2022/04/13 03:33:18;;;;;;;14.07;10.53;;;9.60;85.10;;;;;;5080460;28;21047;-84
2022/04/13 03:35:45;;;;;;;12.43;10.13;;;9.60;85.10;;;;;;5096781;28;20226;-84
2022/04/13 03:38:12;;;;;;;15.03;10.87;;;9.60;85.20;;;;;;5068275;28;20542;-83
2022/04/13 03:40:40;;;;;;;15.23;11.37;;;9.60;85.30;;;;;;5098305;28;20223;-84
2022/04/13 03:43:07;;;;;;;14.50;10.27;;;9.60;85.50;;;;;;5077304;28;20293;-84
2022/04/13 03:45:34;;;;;;;13.63;10.80;;;9.60;85.50;;;;;;5083095;28;20272;-83
2022/04/13 03:48:02;;;;;;;11.57;10.27;;;9.60;85.40;;;;;;5084901;28;20202;-85
2022/04/13 03:50:29;;;;;;;15.43;11.90;;;9.60;85.50;;;;;;5098186;28;20261;-85
2022/04/13 03:52:56;;;;;;;16.40;13.30;;;9.60;85.50;;;;;;5084032;28;20301;-85
2022/04/13 03:55:24;;;;;;;13.13;11.50;;;9.60;85.60;;;;;;5100336;28;20232;-84
2022/04/13 03:57:52;;;;;;;17.40;11.57;;;9.50;85.80;;;;;;5068408;28;20197;-85
2022/04/13 04:00:19;;;;;;;13.70;11.50;;;9.60;85.90;;;;;;5080129;28;20231;-83
2022/04/13 04:02:46;;;;;;;15.83;12.03;;;9.50;85.70;;;;;;5095748;28;20210;-84
2022/04/13 04:05:15;;;;;;;16.97;11.33;;;9.60;85.70;;;;;;5077385;28;20213;-83
2022/04/13 04:07:43;;;;;;;12.30;9.37;;;9.50;85.60;;;;;;5079442;28;20304;-84
2022/04/13 04:10:11;;;;;;;16.30;12.23;;;9.50;85.30;;;;;;5078667;28;20284;-84
2022/04/13 04:12:42;;;;;;;16.37;13.33;;;9.40;85.10;;;;;;5078545;28;20209;-85
2022/04/13 04:15:10;;;;;;;17.53;12.30;;;9.40;85.20;;;;;;5076796;28;20584;-84
2022/04/13 04:17:38;;;;;;;12.87;10.40;;;9.30;85.80;;;;;;5079477;28;21674;-84
2022/04/13 04:20:06;;;;;;;12.33;10.73;;;9.30;86.10;;;;;;5097505;28;20282;-84
2022/04/13 04:22:35;;;;;;;11.07;9.73;;;9.30;85.90;;;;;;5096072;28;20201;-83
2022/04/13 04:25:08;;;;;;;13.90;10.33;;;9.30;85.70;;;;;;5078640;28;20226;-84
2022/04/13 04:27:35;;;;;;;14.47;10.37;;;9.20;85.70;;;;;;5098455;28;20198;-84
2022/04/13 04:30:03;;;;;;;15.33;12.47;;;9.20;86.00;;;;;;5079752;28;20193;-83
2022/04/13 04:32:48;;;;;;;15.17;11.77;;;9.20;86.10;;;;;;5079360;28;20201;-85
2022/04/13 04:35:15;;;;;;;14.03;11.63;;;9.20;86.40;;;;;;5077559;28;20271;-83
2022/04/13 04:37:42;;;;;;;20.27;11.13;;;9.10;86.50;;;;;;5094060;28;20274;-84
2022/04/13 04:40:10;;;;;;;13.53;10.40;;;9.10;86.40;;;;;;5074669;28;20677;-84
2022/04/13 04:46:12;;;;;;;14.10;11.60;;;9.20;86.40;;;;;;5093391;28;20193;-84
2022/04/13 04:48:45;;;;;;;16.30;10.90;;;9.10;86.50;;;;;;5080795;28;20553;-84
2022/04/13 04:51:13;;;;;;;15.80;13.43;;;9.10;86.70;;;;;;5059997;28;20214;-84
2022/04/13 04:53:41;;;;;;;21.97;13.17;;;9.20;87.70;;;;;;5058873;28;20225;-84
2022/04/13 04:57:00;;;;;;;20.20;13.07;;;9.20;87.60;;;;;;5059638;28;20240;-83
2022/04/13 05:00:18;;;;;;;19.40;13.10;;;9.20;87.80;;;;;;5087363;28;20254;-84
2022/04/13 05:02:48;;;;;;;20.03;13.60;;;9.30;87.80;;;;;;5076706;28;20278;-84
2022/04/13 05:05:17;;;;;;;21.67;15.07;;;9.30;87.70;;;;;;5065682;28;20209;-85
2022/04/13 05:07:46;;;;;;;16.60;12.73;;;9.40;87.70;;;;;;5083994;28;20297;-84
2022/04/13 05:10:16;;;;;;;15.20;12.23;;;9.40;87.70;;;;;;5093403;28;20200;-83
2022/04/13 05:12:58;;;;;;;22.73;15.43;;;9.40;87.40;;;;;;5080326;28;20226;-84
2022/04/13 05:15:53;;;;;;;22.53;14.57;;;9.50;87.20;;;;;;5108383;28;20217;-84
2022/04/13 05:18:22;;;;;;;17.43;13.80;;;9.50;87.50;;;;;;5060537;28;20273;-84
2022/04/13 05:20:50;;;;;;;22.93;12.63;;;9.60;87.70;;;;;;5094725;28;20567;-84
2022/04/13 05:23:18;;;;;;;22.17;13.13;;;9.70;87.80;;;;;;5077819;28;20197;-84
2022/04/13 05:25:46;;;;;;;19.77;13.50;;;9.70;87.60;;;;;;5077891;28;20233;-84
2022/04/13 05:28:13;;;;;;;19.37;14.97;;;9.70;87.60;;;;;;5076853;28;20209;-85
2022/04/13 05:30:41;;;;;;;20.27;14.27;;;9.80;88.00;;;;;;5098052;28;20240;-84
2022/04/13 05:33:08;;;;;;;21.07;14.57;;;9.80;88.10;;;;;;5080165;28;20202;-83
2022/04/13 05:35:35;;;;;;;19.43;14.90;;;9.90;88.20;;;;;;5079215;28;20228;-85
2022/04/13 05:38:05;;;;;;;16.27;14.00;;;10.00;88.40;;;;;;5083566;28;20220;-83
2022/04/13 05:40:32;;;;;;;18.73;13.73;;;10.10;88.70;;;;;;5080329;28;20265;-85
2022/04/13 05:42:59;;;;;;;17.73;13.60;;;10.20;88.80;;;;;;5082064;28;20193;-83
2022/04/13 05:45:35;;;;;;;18.27;14.43;;;10.30;89.00;;;;;;5098369;28;20228;-84
2022/04/13 05:48:05;;;;;;;23.23;15.37;;;10.40;89.10;;;;;;5098179;28;20259;-85
2022/04/13 05:50:42;;;;;;;21.70;14.73;;;10.50;89.10;;;;;;5100070;28;20238;-84
2022/04/13 05:53:10;;;;;;;20.13;15.47;;;10.60;89.30;;;;;;5092107;28;20201;-84
2022/04/13 05:55:37;;;;;;;25.17;16.17;;;10.80;89.50;;;;;;5078440;28;20309;-84
2022/04/13 05:58:04;;;;;;;24.63;18.03;;;10.80;90.00;;;;;;5076506;28;20218;-85
2022/04/13 06:00:31;;;;;;;22.13;17.13;;;10.90;89.60;;;;;;5078824;28;20203;-84
2022/04/13 06:02:58;;;;;;;32.43;20.43;;;11.00;89.80;;;;;;5074002;28;20540;-84
2022/04/13 06:05:26;;;;;;;33.10;22.47;;;11.10;89.80;;;;;;5076949;28;20628;-84
2022/04/13 06:07:54;;;;;;;32.37;21.53;;;11.20;90.00;;;;;;5059539;28;20196;-85
2022/04/13 06:10:22;;;;;;;30.17;19.30;;;11.30;90.10;;;;;;5059947;28;20202;-83
2022/04/13 06:12:49;;;;;;;29.47;18.97;;;11.30;90.30;;;;;;5074850;28;20207;-84
2022/04/13 06:15:16;;;;;;;28.60;20.10;;;11.40;90.50;;;;;;5063209;28;20223;-85
2022/04/13 06:17:44;;;;;;;34.10;20.97;;;11.50;90.60;;;;;;5080591;28;20612;-84
2022/04/13 06:20:14;;;;;;;33.37;21.07;;;11.60;90.80;;;;;;5059836;28;20226;-84
2022/04/13 06:22:42;;;;;;;40.10;22.43;;;11.60;90.80;;;;;;5061972;28;20229;-84
2022/04/13 06:25:11;;;;;;;43.97;22.73;;;11.60;91.10;;;;;;5082619;28;20216;-84
2022/04/13 06:27:40;;;;;;;34.47;22.40;;;11.70;91.30;;;;;;5064865;28;20212;-85
2022/04/13 06:30:08;;;;;;;37.03;23.60;;;11.80;91.40;;;;;;5078969;28;20208;-85
2022/04/13 06:32:40;;;;;;;43.53;22.77;;;11.80;91.70;;;;;;5101079;28;20225;-85
2022/04/13 06:35:15;;;;;;;48.50;24.00;;;11.80;91.80;;;;;;5096207;28;20304;-86
2022/04/13 06:37:46;;;;;;;42.00;23.13;;;11.90;91.90;;;;;;5064053;28;20674;-85
2022/04/13 06:40:14;;;;;;;49.37;23.60;;;11.90;92.10;;;;;;5096445;28;20199;-85
2022/04/13 06:42:42;;;;;;;37.57;21.97;;;12.00;92.20;;;;;;5082035;28;20283;-85
2022/04/13 06:45:12;;;;;;;46.07;22.67;;;12.00;92.20;;;;;;5063350;28;20236;-83
2022/04/13 06:47:40;;;;;;;45.17;21.03;;;12.00;92.30;;;;;;5079994;28;20242;-85
2022/04/13 06:50:10;;;;;;;48.03;24.40;;;12.10;92.40;;;;;;5084015;28;20203;-84
2022/04/13 06:52:39;;;;;;;37.70;21.90;;;12.10;92.40;;;;;;5083187;28;20235;-84
2022/04/13 06:55:09;;;;;;;48.27;21.70;;;12.20;92.50;;;;;;5060036;28;20223;-84
2022/04/13 06:57:38;;;;;;;34.87;20.23;;;12.30;92.60;;;;;;5096291;28;20634;-85
2022/04/13 07:00:11;;;;;;;40.20;22.40;;;12.40;92.60;;;;;;5079455;28;20918;-85
2022/04/13 07:02:40;;;;;;;29.27;19.00;;;12.40;92.50;;;;;;5087660;28;20206;-85
2022/04/13 07:05:28;;;;;;;37.00;19.53;;;12.50;92.50;;;;;;5081251;28;20212;-85
2022/04/13 07:07:56;;;;;;;57.40;20.87;;;12.50;92.50;;;;;;5077730;28;20290;-84
2022/04/13 07:10:27;;;;;;;28.90;19.53;;;12.60;92.50;;;;;;5095510;28;20201;-84
2022/04/13 07:12:56;;;;;;;37.83;20.37;;;12.60;92.50;;;;;;5096363;28;20286;-85
2022/04/13 07:15:25;;;;;;;33.57;21.20;;;12.60;92.60;;;;;;5098098;28;20226;-85
2022/04/13 07:17:53;;;;;;;31.27;19.77;;;12.60;92.90;;;;;;5098615;28;20262;-84
2022/04/13 07:20:21;;;;;;;28.67;19.30;;;12.60;92.70;;;;;;5095389;28;20219;-85
2022/04/13 07:22:53;;;;;;;29.57;18.50;;;12.70;92.80;;;;;;5096754;28;20196;-85
2022/04/13 07:25:21;;;;;;;28.43;18.03;;;12.80;92.90;;;;;;5097725;28;20239;-85
2022/04/13 07:27:49;;;;;;;24.43;17.87;;;12.90;93.20;;;;;;5065111;28;20223;-85
2022/04/13 07:30:16;;;;;;;27.67;18.63;;;13.00;92.90;;;;;;5083420;28;20202;-84
2022/04/13 07:32:46;;;;;;;23.93;16.13;;;13.00;92.70;;;;;;5079790;28;20203;-85
2022/04/13 07:35:14;;;;;;;27.77;15.67;;;13.10;92.60;;;;;;5081382;28;20224;-85
2022/04/13 07:37:42;;;;;;;29.83;17.30;;;13.10;92.60;;;;;;5063365;28;20226;-84
2022/04/13 07:40:12;;;;;;;28.50;16.40;;;13.20;92.70;;;;;;5080987;28;20297;-84
2022/04/13 07:42:39;;;;;;;22.70;16.13;;;13.20;92.70;;;;;;5095020;28;20208;-85
2022/04/13 07:45:08;;;;;;;28.30;17.70;;;13.30;92.80;;;;;;5077574;28;20593;-83
2022/04/13 07:47:36;;;;;;;35.57;18.47;;;13.30;92.80;;;;;;5081452;28;20193;-84
2022/04/13 07:50:05;;;;;;;30.37;19.03;;;13.50;92.90;;;;;;5080637;28;20216;-85
2022/04/13 07:52:36;;;;;;;31.13;18.53;;;13.60;92.90;;;;;;5079249;28;20232;-85
2022/04/13 07:55:04;;;;;;;33.57;19.27;;;13.70;92.90;;;;;;5080640;28;20298;-84
2022/04/13 07:57:31;;;;;;;28.83;16.03;;;13.80;92.90;;;;;;5097799;28;20214;-86
2022/04/13 07:59:58;;;;;;;24.47;14.27;;;13.90;92.70;;;;;;5082454;28;20191;-84
2022/04/13 08:02:51;;;;;;;24.90;15.77;;;14.00;92.50;;;;;;5081801;28;20290;-84
2022/04/13 08:05:19;;;;;;;21.60;14.67;;;14.20;92.40;;;;;;5102572;28;20214;-84
2022/04/13 08:07:47;;;;;;;20.13;14.13;;;14.40;92.40;;;;;;5085215;28;20221;-84
2022/04/13 08:10:14;;;;;;;19.57;14.80;;;14.50;91.70;;;;;;5079708;28;20203;-84
2022/04/13 08:12:42;;;;;;;21.50;14.30;;;14.60;90.90;;;;;;5082525;28;20228;-85
2022/04/13 08:15:11;;;;;;;22.87;14.13;;;14.60;90.90;;;;;;5081135;28;20622;-83
2022/04/13 08:17:44;;;;;;;20.17;13.73;;;14.60;90.90;;;;;;5069501;28;20264;-84
2022/04/13 08:20:18;;;;;;;20.90;15.77;;;14.80;91.50;;;;;;5100048;28;20225;-84
2022/04/13 08:22:47;;;;;;;22.43;15.50;;;14.90;90.90;;;;;;5068161;28;20204;-85
2022/04/13 08:25:14;;;;;;;21.70;14.17;;;15.10;90.70;;;;;;5084547;28;20240;-85
2022/04/13 08:27:43;;;;;;;23.83;15.27;;;15.30;90.60;;;;;;5084235;28;20266;-86
2022/04/13 08:30:12;;;;;;;25.40;15.80;;;15.50;90.30;;;;;;5084587;28;20208;-84
2022/04/13 08:32:40;;;;;;;22.10;15.80;;;15.60;88.40;;;;;;5082482;28;20231;-85
2022/04/13 08:35:09;;;;;;;20.40;14.07;;;15.60;87.30;;;;;;5098550;28;20236;-84
2022/04/13 08:37:38;;;;;;;20.07;14.10;;;15.60;86.30;;;;;;5095795;28;20202;-86
2022/04/13 08:40:09;;;;;;;18.07;13.37;;;15.60;86.30;;;;;;5098958;28;20266;-84
2022/04/13 08:42:44;;;;;;;20.10;14.20;;;15.60;85.90;;;;;;5092621;28;20205;-84
2022/04/13 08:45:31;;;;;;;18.37;13.87;;;15.80;86.80;;;;;;5092896;28;20213;-85
2022/04/13 08:48:00;;;;;;;18.30;13.90;;;15.90;86.50;;;;;;5062414;28;20197;-84
2022/04/13 08:50:30;;;;;;;14.10;11.80;;;16.10;85.30;;;;;;5081878;28;20246;-81
2022/04/13 08:53:02;;;;;;;22.53;12.67;;;16.40;84.80;;;;;;5065845;28;20217;-84
2022/04/13 08:55:31;;;;;;;13.60;10.17;;;16.60;83.30;;;;;;5097867;28;20282;-82
2022/04/13 08:58:13;;;;;;;17.80;11.60;;;16.70;81.90;;;;;;5064129;28;20197;-84
2022/04/13 09:00:49;;;;;;;15.73;11.77;;;16.80;81.70;;;;;;5065447;28;20205;-85
2022/04/13 09:03:30;;;;;;;13.70;9.83;;;17.00;81.30;;;;;;5064232;28;20204;-85
2022/04/13 09:06:04;;;;;;;12.37;10.53;;;17.20;78.20;;;;;;5079001;28;20210;-83
2022/04/13 09:08:44;;;;;;;14.87;10.43;;;17.30;77.00;;;;;;5097042;28;20258;-82
2022/04/13 09:11:13;;;;;;;14.07;10.63;;;17.40;76.30;;;;;;5062929;28;20276;-82
2022/04/13 09:13:43;;;;;;;14.47;11.43;;;17.50;76.80;;;;;;5097541;28;20210;-84
2022/04/13 09:16:12;;;;;;;11.87;10.10;;;17.60;77.80;;;;;;5080046;28;20281;-83
2022/04/13 09:18:39;;;;;;;13.00;9.60;;;17.80;77.10;;;;;;5063389;28;20247;-84
2022/04/13 09:21:07;;;;;;;13.53;10.03;;;17.90;74.10;;;;;;5080838;28;20206;-81
2022/04/13 09:23:41;;;;;;;12.20;8.23;;;18.00;73.40;;;;;;5078842;28;20216;-83
2022/04/13 09:26:09;;;;;;;7.90;7.00;;;17.90;72.80;;;;;;5076778;28;20209;-83
2022/04/13 09:28:37;;;;;;;10.20;8.23;;;18.00;72.20;;;;;;5095019;28;20642;-84
2022/04/13 09:31:05;;;;;;;12.00;7.33;;;18.10;71.50;;;;;;5076613;28;20203;-83
2022/04/13 09:33:33;;;;;;;12.77;10.03;;;18.20;72.20;;;;;;5063809;28;20262;-81
2022/04/13 09:36:00;;;;;;;10.57;8.33;;;18.30;71.00;;;;;;5092990;28;20246;-83
2022/04/13 09:38:28;;;;;;;10.73;8.80;;;18.40;71.00;;;;;;5069584;28;20681;-85
2022/04/13 09:41:06;;;;;;;11.63;8.00;;;18.50;71.70;;;;;;5095093;28;20215;-83
2022/04/13 09:43:34;;;;;;;12.60;8.10;;;18.70;71.90;;;;;;5094811;28;20218;-82
2022/04/13 09:46:03;;;;;;;11.30;7.20;;;18.70;68.40;;;;;;5080757;28;20289;-81
2022/04/13 09:48:34;;;;;;;10.17;5.97;;;18.80;68.60;;;;;;5081423;28;20237;-82
2022/04/13 09:51:04;;;;;;;6.90;5.50;;;18.90;68.10;;;;;;5078137;28;20221;-84
2022/04/13 09:53:41;;;;;;;7.60;5.17;;;19.00;65.40;;;;;;5066903;28;20687;-84
2022/04/13 09:56:18;;;;;;;6.97;6.00;;;19.00;63.80;;;;;;5065705;28;20230;-83
2022/04/13 09:58:49;;;;;;;8.53;5.97;;;19.10;63.20;;;;;;5065728;28;20211;-81
2022/04/13 10:01:20;;;;;;;10.10;5.27;;;19.10;63.90;;;;;;5097532;28;20210;-83
2022/04/13 10:03:57;;;;;;;12.13;6.00;;;19.20;63.70;;;;;;5084692;28;20205;-84
2022/04/13 10:06:33;;;;;;;9.53;7.93;;;19.40;64.20;;;;;;5085647;28;20247;-82
2022/04/13 10:09:04;;;;;;;12.30;8.20;;;19.50;63.10;;;;;;5070538;28;20203;-82
2022/04/13 10:11:32;;;;;;;9.37;8.47;;;19.70;64.90;;;;;;5083789;28;20223;-81
2022/04/13 10:14:04;;;;;;;8.17;7.33;;;19.80;63.20;;;;;;5089923;28;20204;-82
2022/04/13 10:16:35;;;;;;;9.73;7.27;;;19.80;63.60;;;;;;5085643;28;20238;-83
2022/04/13 10:19:04;;;;;;;11.40;8.20;;;19.90;63.20;;;;;;5068262;28;20241;-83
2022/04/13 10:21:48;;;;;;;11.17;8.77;;;20.00;64.20;;;;;;5086150;28;20213;-82
2022/04/13 10:24:19;;;;;;;9.47;8.50;;;20.00;63.90;;;;;;5073037;28;20210;-83
2022/04/13 10:27:12;;;;;;;10.43;8.93;;;20.10;64.30;;;;;;5103681;28;20552;-83
2022/04/13 10:29:41;;;;;;;11.17;8.03;;;20.10;63.30;;;;;;5089287;28;20207;-84
2022/04/13 10:32:14;;;;;;;9.10;7.83;;;20.20;64.50;;;;;;5087931;28;20216;-83
2022/04/13 10:34:49;;;;;;;10.53;8.27;;;20.30;63.80;;;;;;5100087;28;20205;-83
2022/04/13 10:37:20;;;;;;;9.27;8.37;;;20.40;64.20;;;;;;5056020;28;20212;-82
2022/04/13 10:39:58;;;;;;;11.83;9.07;;;20.60;64.50;;;;;;5094116;28;20200;-81
2022/04/13 10:42:30;;;;;;;10.30;7.67;;;20.80;63.20;;;;;;5087369;28;20204;-80
2022/04/13 10:45:07;;;;;;;7.83;7.03;;;20.90;63.00;;;;;;5106449;28;20774;-83
2022/04/13 10:47:53;;;;;;;9.57;6.87;;;21.00;60.90;;;;;;5104443;28;20204;-83
2022/04/13 10:50:47;;;;;;;7.47;6.47;;;21.00;62.40;;;;;;5088999;28;20233;-82
2022/04/13 10:53:15;;;;;;;7.40;6.70;;;21.20;61.40;;;;;;5104541;28;20239;-82
2022/04/13 10:55:51;;;;;;;8.77;7.20;;;21.20;60.80;;;;;;5084935;28;20231;-83
2022/04/13 10:58:32;;;;;;;7.30;6.50;;;21.30;59.00;;;;;;5085269;28;20211;-83
2022/04/13 11:01:05;;;;;;;6.80;6.10;;;21.30;60.70;;;;;;5083369;28;20228;-82
2022/04/13 11:03:37;;;;;;;5.27;4.80;;;21.40;61.00;;;;;;5083166;28;20285;-83
2022/04/13 11:06:07;;;;;;;7.13;5.43;;;21.40;57.60;;;;;;5100943;28;20212;-81
2022/04/13 11:09:03;;;;;;;7.27;5.03;;;21.50;57.20;;;;;;5101525;28;20217;-83
2022/04/13 11:11:32;;;;;;;8.33;4.67;;;21.40;57.90;;;;;;5085915;28;20205;-83
2022/04/13 11:13:59;;;;;;;6.63;4.87;;;21.50;57.30;;;;;;5098209;28;20229;-80
2022/04/13 11:16:27;;;;;;;5.23;4.73;;;21.50;57.90;;;;;;5100454;28;20314;-82
2022/04/13 11:19:06;;;;;;;10.70;4.80;;;21.60;57.70;;;;;;5069655;28;20193;-80
2022/04/13 11:21:34;;;;;;;5.33;4.60;;;21.60;58.30;;;;;;5081776;28;20237;-80
2022/04/13 11:24:01;;;;;;;7.60;4.50;;;21.60;57.50;;;;;;5098817;28;20204;-81
2022/04/13 11:26:34;;;;;;;4.53;4.00;;;21.80;57.30;;;;;;5097539;28;20678;-80
2022/04/13 11:29:23;;;;;;;6.43;4.20;;;21.90;57.50;;;;;;5098513;28;20214;-81
2022/04/13 11:32:00;;;;;;;5.00;4.13;;;22.10;57.50;;;;;;5081491;28;20208;-81
2022/04/13 11:34:35;;;;;;;4.40;3.60;;;22.10;54.00;;;;;;5066008;28;20220;-83
2022/04/13 11:37:14;;;;;;;4.00;2.37;;;22.00;54.50;;;;;;5081247;28;20227;-83
2022/04/13 11:40:03;;;;;;;1.93;1.30;;;22.00;53.20;;;;;;5101245;28;20218;-83
2022/04/13 11:42:37;;;;;;;4.60;2.17;;;22.00;51.30;;;;;;5098774;28;20212;-80
2022/04/13 11:45:10;;;;;;;4.30;2.40;;;22.20;53.60;;;;;;5082460;28;20259;-83
2022/04/13 11:47:45;;;;;;;2.13;1.93;;;22.40;52.40;;;;;;5099183;28;20639;-82
2022/04/13 11:50:17;;;;;;;2.67;2.10;;;22.50;52.00;;;;;;5084313;28;20515;-81
2022/04/13 11:53:10;;;;;;;2.40;1.40;;;22.50;49.40;;;;;;5098536;28;20197;-82
2022/04/13 11:55:41;;;;;;;1.77;1.43;;;22.50;48.80;;;;;;5103827;28;20227;-81
2022/04/13 11:58:19;;;;;;;4.23;2.10;;;22.40;48.20;;;;;;5098889;28;20525;-80
2022/04/13 12:01:08;;;;;;;4.33;1.83;;;22.40;48.30;;;;;;5100851;28;20284;-83
2022/04/13 12:03:38;;;;;;;3.50;1.50;;;22.20;48.10;;;;;;5082935;28;20205;-80
2022/04/13 12:06:11;;;;;;;2.87;1.80;;;22.20;49.00;;;;;;5083746;28;20197;-81
2022/04/13 12:08:42;;;;;;;3.83;2.17;;;22.20;49.70;;;;;;5081802;28;20213;-80
2022/04/13 12:11:18;;;;;;;5.53;1.77;;;22.30;50.70;;;;;;5082331;28;20201;-79
2022/04/13 12:14:28;;;;;;;2.73;1.40;;;22.40;49.30;;;;;;5066533;28;20267;-80
2022/04/13 12:17:00;;;;;;;6.07;1.83;;;22.50;49.10;;;;;;5078902;28;20316;-79
2022/04/13 12:19:42;;;;;;;2.87;1.40;;;22.70;47.20;;;;;;5061218;28;20212;-79
2022/04/13 12:22:17;;;;;;;3.10;1.30;;;22.80;47.10;;;;;;5064852;28;20193;-82
2022/04/13 12:24:58;;;;;;;4.87;1.63;;;22.90;48.80;;;;;;5065239;28;20201;-79
2022/04/13 12:27:26;;;;;;;2.93;1.40;;;23.00;48.20;;;;;;5079815;28;20205;-81
2022/04/13 12:30:11;;;;;;;1.50;1.13;;;23.10;47.10;;;;;;5044120;28;20215;-79
2022/04/13 12:32:48;;;;;;;4.30;1.23;;;23.20;46.70;;;;;;5048245;28;20223;-83
2022/04/13 12:35:22;;;;;;;2.23;1.40;;;23.20;46.30;;;;;;5064644;28;20206;-81
2022/04/13 12:37:55;;;;;;;1.40;1.03;;;23.30;45.40;;;;;;5051077;28;20692;-79
2022/04/13 12:40:27;;;;;;;2.97;1.67;;;23.30;45.00;;;;;;5061496;28;20201;-82
2022/04/13 12:42:54;;;;;;;2.30;1.10;;;23.30;43.80;;;;;;5065243;28;20198;-84
2022/04/13 12:45:29;;;;;;;5.73;1.37;;;23.40;42.90;;;;;;5047936;28;20233;-80
2022/04/13 12:47:56;;;;;;;3.30;1.27;;;23.40;43.60;;;;;;5079059;28;20227;-82
2022/04/13 12:50:24;;;;;;;2.10;1.13;;;23.40;42.30;;;;;;5081912;28;20264;-79
2022/04/13 12:52:58;;;;;;;2.70;1.30;;;23.40;42.10;;;;;;5064220;28;20202;-80
2022/04/13 12:55:27;;;;;;;2.43;1.30;;;23.40;43.10;;;;;;5064229;28;20210;-81
2022/04/13 12:57:59;;;;;;;2.97;1.23;;;23.30;42.10;;;;;;5065475;28;20206;-84
2022/04/13 13:00:50;;;;;;;1.50;1.03;;;23.20;43.90;;;;;;5062692;28;20194;-82